Norbank — PGIS — position and weather

sailwx.info

Track history (hours):
 
Tides and Currents Weather Stations Pressure Air Temp Water Temp Dewpoint Dewpoint Depression Visibility Wind Speed Wind Dir Waves Ship Positions

Norbank

Operator: P & O Ferries

Last reported at 2019-Apr-24 22:30 UTC. Time now 2019-Apr-24 22:40 UTC.
Position N 53°34' W 003°46'.

Length 167 m; draft 5.5 m.

Type: Ship (hazmat cat A). MMSI: 246213000.

Date/timePositionNaut miles runAvg speedWind from/ knotsBaromVisibWave heightAir tempDewpointWater temp
2019-Apr-24 22:30N 53°34' W 003°46'918.3
2019-Apr-24 22:00N 53°33' W 003°31'918.4
2019-Apr-24 21:31N 53°32' W 003°16'714.3
2019-Apr-24 21:01N 53°29' W 003°04'3 5.4
2019-Apr-24 20:31N 53°27' W 003°01'0 0.9
2019-Apr-24 20:01N 53°27' W 003°01'0 0.0
2019-Apr-24 19:28N 53°27' W 003°01'0 0.0
2019-Apr-24 18:55N 53°27' W 003°01'0 0.0
2019-Apr-24 18:28N 53°27' W 003°01'0 0.0
2019-Apr-24 17:58N 53°27' W 003°01'0 0.0
2019-Apr-24 17:30N 53°27' W 003°01'0 0.0
2019-Apr-24 17:00N 53°27' W 003°01'0 0.0
2019-Apr-24 16:30N 53°27' W 003°01'0 0.0
2019-Apr-24 16:00N 53°27' W 003°01'0 0.9
2019-Apr-24 15:30N 53°27' W 003°01'2 4.9
2019-Apr-24 15:00N 53°29' W 003°04'815.1
2019-Apr-24 14:30N 53°31' W 003°16'510.0
2019-Apr-24 14:00N 53°31' W 003°25'815.6
2019-Apr-24 13:31N 53°31' W 003°38'917.2
2019-Apr-24 13:01N 53°32' W 003°52'917.8
2019-Apr-24 12:30N 53°34' W 004°07'6617.6
2019-Apr-24 08:47N 53°22' W 005°55'517.1
2019-Apr-24 08:30N 53°20' W 006°03'611.4
2019-Apr-24 08:00N 53°21' W 006°12'1 1.0
2019-Apr-24 07:30N 53°21' W 006°13'0 0.0
2019-Apr-24 06:59N 53°21' W 006°13'0 0.0
2019-Apr-24 06:17N 53°21' W 006°13'0 0.0
2019-Apr-24 05:47N 53°21' W 006°13'0 0.0
2019-Apr-24 05:11N 53°21' W 006°13'0 0.0
2019-Apr-24 04:59N 53°21' W 006°13'0 0.0
2019-Apr-24 04:25N 53°21' W 006°13'0 0.2
2019-Apr-24 04:00N 53°21' W 006°13'5 9.0
2019-Apr-24 03:30N 53°20' W 006°05'816.9
2019-Apr-24 03:00N 53°23' W 005°52'7615.7
2019-Apr-23 22:10N 53°33' W 003°45'317.7
2019-Apr-23 22:00N 53°33' W 003°41'918.1
2019-Apr-23 21:30N 53°33' W 003°26'816.8
2019-Apr-23 21:00N 53°32' W 003°12'714.6
2019-Apr-23 20:30N 53°27' W 003°02'1 1.0
2019-Apr-23 20:00N 53°27' W 003°01'0 0.9
2019-Apr-23 19:30N 53°27' W 003°01'0 0.0
2019-Apr-23 18:59N 53°27' W 003°01'0 0.0
2019-Apr-23 18:29N 53°27' W 003°01'0 0.0
2019-Apr-23 17:59N 53°27' W 003°01'0 0.0
2019-Apr-23 17:29N 53°27' W 003°01'0 0.0
2019-Apr-23 16:58N 53°27' W 003°01'0 0.0
2019-Apr-23 16:28N 53°27' W 003°01'0 0.0
2019-Apr-23 15:58N 53°27' W 003°01'0 0.9
2019-Apr-23 15:30N 53°27' W 003°01'0 0.2
2019-Apr-23 15:00N 53°27' W 003°01'714.9
2019-Apr-23 14:30N 53°32' W 003°11'816.4
2019-Apr-23 14:00N 53°31' W 003°25'816.7
2019-Apr-23 13:30N 53°31' W 003°39'917.2
2019-Apr-23 13:00N 53°32' W 003°53'917.6
2019-Apr-23 12:30N 53°34' W 004°08'1618.5
2019-Apr-23 11:39N 53°36' W 004°35'3718.9
2019-Apr-23 09:41N 53°26' W 005°35'1319.5
2019-Apr-23 09:01N 53°22' W 005°56'018.9
2019-Apr-23 09:00N 53°22' W 005°56'816.1
2019-Apr-23 08:30N 53°21' W 006°09'2 2.7
2019-Apr-23 07:37N 53°21' W 006°13'0 0.0
2019-Apr-23 07:28N 53°21' W 006°13'0 0.0
2019-Apr-23 06:58N 53°21' W 006°13'0 0.0
2019-Apr-23 06:18N 53°21' W 006°13'0 0.0
2019-Apr-23 05:48N 53°21' W 006°13'0 0.0
2019-Apr-23 05:26N 53°21' W 006°13'0 0.0
2019-Apr-23 04:57N 53°21' W 006°13'0 0.0
2019-Apr-23 04:27N 53°21' W 006°13'0 0.2
2019-Apr-23 04:00N 53°21' W 006°13'4 8.8
2019-Apr-23 03:30N 53°20' W 006°06'917.5
2019-Apr-23 03:00N 53°23' W 005°52'917.5
2019-Apr-23 02:30N 53°26' W 005°38'917.3
2019-Apr-23 02:00N 53°28' W 005°23'917.3
2019-Apr-23 01:30N 53°30' W 005°09'4817.7
2019-Apr-22 22:47N 53°34' W 003°49'517.2
2019-Apr-22 22:30N 53°33' W 003°41'917.2
2019-Apr-22 22:00N 53°33' W 003°27'816.6
2019-Apr-22 21:30N 53°31' W 003°13'713.4
2019-Apr-22 21:00N 53°28' W 003°03'1 2.9
2019-Apr-22 20:30N 53°27' W 003°01'0 0.9
2019-Apr-22 20:00N 53°27' W 003°01'0 0.0
2019-Apr-22 19:27N 53°27' W 003°01'0 0.0
2019-Apr-22 19:00N 53°27' W 003°01'0 0.0
2019-Apr-22 18:29N 53°27' W 003°01'0 0.0
2019-Apr-22 17:59N 53°27' W 003°01'0 0.0
2019-Apr-22 17:29N 53°27' W 003°01'0 0.0
2019-Apr-22 16:59N 53°27' W 003°01'0 0.0
2019-Apr-22 16:28N 53°27' W 003°01'0 0.0
2019-Apr-22 15:58N 53°27' W 003°01'0 0.4
2019-Apr-22 15:30N 53°27' W 003°01'0 0.8
2019-Apr-22 15:00N 53°27' W 003°01'5 9.9
2019-Apr-22 14:30N 53°31' W 003°06'917.2
2019-Apr-22 14:00N 53°31' W 003°21'816.3
2019-Apr-22 13:30N 53°31' W 003°35'816.5
2019-Apr-22 13:00N 53°33' W 003°48'917.1
2019-Apr-22 12:30N 53°38' W 003°60'816.9
2019-Apr-22 12:00N 53°43' W 004°12'3015.9
2019-Apr-22 10:06N 54°00' W 004°54'112.6
2019-Apr-22 10:00N 54°01' W 004°55'611.4
2019-Apr-22 09:30N 54°06' W 004°59'511.0
2019-Apr-22 09:00N 54°11' W 005°03'611.3
2019-Apr-22 08:30N 54°17' W 005°06'611.0
2019-Apr-22 08:00N 54°22' W 005°10'611.1
2019-Apr-22 07:30N 54°26' W 005°15'611.4
2019-Apr-22 07:00N 54°32' W 005°18'611.0
2019-Apr-22 06:30N 54°37' W 005°21'510.7
2019-Apr-22 06:01N 54°42' W 005°25'612.7
2019-Apr-22 05:31N 54°48' W 005°30'714.4
2019-Apr-22 05:00N 54°54' W 005°35'714.7
2019-Apr-22 04:30N 55°01' W 005°41'714.1
2019-Apr-22 04:00N 55°06' W 005°48'713.2
2019-Apr-22 03:30N 55°12' W 005°55'612.5
2019-Apr-22 03:00N 55°17' W 006°01'613.0
2019-Apr-22 02:31N 55°21' W 006°09'713.9
2019-Apr-22 02:00N 55°24' W 006°20'713.7
2019-Apr-22 01:30N 55°29' W 006°29'815.5
2019-Apr-22 01:00N 55°34' W 006°40'815.7
2019-Apr-22 00:30N 55°40' W 006°49'816.3
2019-Apr-22 00:00N 55°46' W 006°57'816.4
2019-Apr-21 23:30N 55°53' W 007°05'16510.9
2019-Apr-21 08:22N 58°29' W 005°24'2910.1
2019-Apr-21 05:27N 58°42' W 004°34'510.2
2019-Apr-21 05:00N 58°42' W 004°25'510.8
2019-Apr-21 04:30N 58°42' W 004°14'611.4
2019-Apr-21 04:00N 58°43' W 004°03'611.6
2019-Apr-21 03:30N 58°43' W 003°52'612.1
2019-Apr-21 03:00N 58°43' W 003°40'613.0
2019-Apr-21 02:30N 58°43' W 003°28'917.9
2019-Apr-21 02:00N 58°43' W 003°11'1020.3
2019-Apr-21 01:30N 58°38' W 002°54'714.0
2019-Apr-21 01:00N 58°36' W 002°41'611.9
2019-Apr-21 00:30N 58°34' W 002°30'611.3
2019-Apr-21 00:00N 58°32' W 002°20'12811.2
2019-Apr-20 12:35N 58°07' E 001°39'411.2
2019-Apr-20 12:12N 58°07' E 001°47'211.0
2019-Apr-20 11:59N 58°06' E 001°52'4011.0
2019-Apr-20 08:19N 58°01' E 003°07'411.2
2019-Apr-20 07:55N 58°00' E 003°15'811.3
2019-Apr-20 07:11N 57°59' E 003°31'211.2
2019-Apr-20 07:01N 57°59' E 003°35'815.9
2019-Apr-20 06:30N 57°58' E 003°50'917.3
2019-Apr-20 06:00N 57°56' E 004°06'917.1
2019-Apr-20 05:30N 57°54' E 004°21'917.5
2019-Apr-20 04:59N 57°51' E 004°37'917.6
2019-Apr-20 04:30N 57°50' E 004°53'917.6
2019-Apr-20 04:00N 57°48' E 005°10'917.6
2019-Apr-20 03:30N 57°45' E 005°25'917.6
2019-Apr-20 03:00N 57°43' E 005°41'917.8
2019-Apr-20 02:30N 57°41' E 005°58'917.6
2019-Apr-20 02:00N 57°39' E 006°14'917.5
2019-Apr-20 01:30N 57°38' E 006°30'917.5
2019-Apr-20 01:00N 57°37' E 006°46'917.7
2019-Apr-20 00:30N 57°36' E 007°03'917.5
2019-Apr-20 00:00N 57°36' E 007°19'917.8
2019-Apr-19 23:30N 57°35' E 007°35'917.3
2019-Apr-19 23:00N 57°35' E 007°52'917.5
2019-Apr-19 22:30N 57°36' E 008°08'918.3
2019-Apr-19 22:00N 57°37' E 008°25'917.8
2019-Apr-19 21:30N 57°38' E 008°41'918.4
2019-Apr-19 21:00N 57°40' E 008°58'917.8
2019-Apr-19 20:30N 57°42' E 009°15'917.4
2019-Apr-19 20:00N 57°43' E 009°31'917.3
2019-Apr-19 19:30N 57°44' E 009°47'917.7
2019-Apr-19 19:01N 57°46' E 010°03'917.5
2019-Apr-19 18:30N 57°47' E 010°19'917.5
2019-Apr-19 18:00N 57°48' E 010°35'917.5
2019-Apr-19 17:31N 57°47' E 010°51'917.5
2019-Apr-19 17:01N 57°40' E 011°03'917.3
2019-Apr-19 16:31N 57°34' E 011°14'815.2
2019-Apr-19 16:01N 57°29' E 011°24'713.9
2019-Apr-19 15:30N 57°23' E 011°29'714.3
2019-Apr-19 15:00N 57°16' E 011°34'714.1
2019-Apr-19 14:30N 57°09' E 011°38'713.7
2019-Apr-19 14:00N 57°03' E 011°42'714.3
2019-Apr-19 13:30N 56°56' E 011°46'815.5
2019-Apr-19 13:00N 56°49' E 011°51'1213.8
2019-Apr-19 12:09N 56°37' E 011°57'210.1
2019-Apr-19 12:00N 56°36' E 011°58'810.9
2019-Apr-19 11:17N 56°28' E 012°01'414.0
2019-Apr-19 10:58N 56°24' E 012°02'2013.0
2019-Apr-19 09:24N 56°09' E 012°28'614.6
2019-Apr-19 09:00N 56°05' E 012°36'714.0
2019-Apr-19 08:31N 55°59' E 012°42'713.4
2019-Apr-19 08:00N 55°53' E 012°44'612.9
2019-Apr-19 07:31N 55°46' E 012°42'713.4
2019-Apr-19 07:00N 55°40' E 012°41'511.0
2019-Apr-19 06:30N 55°34' E 012°42'511.0
2019-Apr-19 06:00N 55°29' E 012°42'612.6
2019-Apr-19 05:30N 55°22' E 012°41'5 9.4
2019-Apr-19 05:00N 55°18' E 012°44'510.4
2019-Apr-19 04:30N 55°16' E 012°52'510.4
2019-Apr-19 04:00N 55°16' E 013°01'510.4
2019-Apr-19 03:30N 55°15' E 013°10'510.4
2019-Apr-19 03:00N 55°15' E 013°19'510.4
2019-Apr-19 02:30N 55°14' E 013°29'1310.8
2019-Apr-19 01:19N 55°13' E 013°51'411.1
2019-Apr-19 00:58N 55°13' E 013°58'510.9
2019-Apr-19 00:30N 55°12' E 014°06'510.4
2019-Apr-19 00:00N 55°09' E 014°14'510.3
2019-Apr-18 23:30N 55°06' E 014°21'510.3
2019-Apr-18 23:00N 55°03' E 014°28'510.4
2019-Apr-18 22:30N 54°59' E 014°35'510.3
2019-Apr-18 22:00N 54°57' E 014°42'510.3
2019-Apr-18 21:30N 54°54' E 014°50'510.5
2019-Apr-18 21:00N 54°52' E 014°58'510.5
2019-Apr-18 20:30N 54°51' E 015°08'510.7
2019-Apr-18 20:00N 54°51' E 015°17'510.5
2019-Apr-18 19:30N 54°51' E 015°26'510.4
2019-Apr-18 19:00N 54°50' E 015°35'510.5
2019-Apr-18 18:30N 54°50' E 015°44'510.4
2019-Apr-18 18:00N 54°50' E 015°53'510.5
2019-Apr-18 17:30N 54°50' E 016°02'510.5
2019-Apr-18 17:00N 54°49' E 016°11'510.6
2019-Apr-18 16:30N 54°49' E 016°21'510.6
2019-Apr-18 16:00N 54°49' E 016°30'610.5
2019-Apr-18 15:25N 54°50' E 016°40'510.5
2019-Apr-18 14:57N 54°51' E 016°49'1010.6
2019-Apr-18 13:59N 54°53' E 017°06'510.7
2019-Apr-18 13:30N 54°54' E 017°15'710.6
2019-Apr-18 12:49N 54°55' E 017°28'310.5
2019-Apr-18 12:29N 54°55' E 017°33'710.4
2019-Apr-18 11:51N 54°56' E 017°45'410.4
2019-Apr-18 11:29N 54°56' E 017°52'510.4
2019-Apr-18 11:00N 54°56' E 018°00'610.5
2019-Apr-18 10:29N 54°57' E 018°10'510.5
2019-Apr-18 10:00N 54°57' E 018°18'510.4
2019-Apr-18 09:30N 54°57' E 018°27'510.6
2019-Apr-18 09:00N 54°57' E 018°37'510.4
2019-Apr-18 08:30N 54°55' E 018°44'510.4
2019-Apr-18 08:00N 54°52' E 018°52'510.3
2019-Apr-18 07:30N 54°48' E 018°58'5 9.6
2019-Apr-18 07:00N 54°43' E 018°58'510.1
2019-Apr-18 06:30N 54°38' E 018°56'510.3
2019-Apr-18 06:00N 54°34' E 018°52'510.0
2019-Apr-18 05:30N 54°30' E 018°46'612.6
2019-Apr-18 05:01N 54°26' E 018°39'2 4.8
2019-Apr-18 04:31N 54°23' E 018°40'1 1.2
2019-Apr-18 03:58N 54°23' E 018°39'0 0.0
2019-Apr-18 03:28N 54°23' E 018°39'0 0.0
2019-Apr-18 02:58N 54°23' E 018°39'0 0.0
2019-Apr-18 02:25N 54°23' E 018°39'0 0.0
2019-Apr-18 02:00N 54°23' E 018°39'0 0.0
2019-Apr-18 01:30N 54°23' E 018°39'0 0.0
2019-Apr-18 00:54N 54°23' E 018°39'0 0.0
2019-Apr-18 00:21N 54°23' E 018°39'0 0.0
2019-Apr-17 23:59N 54°23' E 018°39'0 0.0
2019-Apr-17 23:29N 54°23' E 018°39'0 0.0
2019-Apr-17 22:59N 54°23' E 018°39'0 0.0
2019-Apr-17 22:29N 54°23' E 018°39'0 0.0
2019-Apr-17 21:59N 54°23' E 018°39'0 0.0
2019-Apr-17 21:25N 54°23' E 018°39'0 0.0
2019-Apr-17 20:55N 54°23' E 018°39'0 0.0
2019-Apr-17 20:28N 54°23' E 018°39'0 0.0
2019-Apr-17 19:58N 54°23' E 018°39'0 0.0
2019-Apr-17 19:31N 54°23' E 018°39'0 0.0
2019-Apr-17 19:00N 54°23' E 018°39'0 0.0
2019-Apr-17 18:30N 54°23' E 018°39'0 0.0
2019-Apr-17 17:54N 54°23' E 018°39'0 0.0
2019-Apr-17 17:30N 54°23' E 018°39'0 0.0
2019-Apr-17 16:59N 54°23' E 018°39'0 0.0
2019-Apr-17 16:20N 54°23' E 018°39'0 0.0
2019-Apr-17 15:59N 54°23' E 018°39'0 0.0
2019-Apr-17 15:11N 54°23' E 018°39'0 0.0
2019-Apr-17 14:46N 54°23' E 018°39'0 0.0
2019-Apr-17 14:28N 54°23' E 018°39'0 0.0
2019-Apr-17 13:52N 54°23' E 018°39'0 0.0
2019-Apr-17 13:28N 54°23' E 018°39'0 0.0
2019-Apr-17 12:58N 54°23' E 018°39'0 0.0
2019-Apr-17 12:30N 54°23' E 018°39'0 0.0
2019-Apr-17 12:00N 54°23' E 018°39'0 0.0
2019-Apr-17 11:21N 54°23' E 018°39'0 0.0
2019-Apr-17 11:00N 54°23' E 018°39'0 0.0
2019-Apr-17 10:27N 54°23' E 018°39'0 0.0
2019-Apr-17 09:59N 54°23' E 018°39'0 0.0
2019-Apr-17 09:29N 54°23' E 018°39'0 0.0
2019-Apr-17 08:59N 54°23' E 018°39'0 0.0
2019-Apr-17 08:29N 54°23' E 018°39'0 0.0
2019-Apr-17 07:59N 54°23' E 018°39'0 0.0
2019-Apr-17 07:25N 54°23' E 018°39'0 0.0
2019-Apr-17 06:58N 54°23' E 018°39'0 0.0
2019-Apr-17 06:28N 54°23' E 018°39'0 0.0
2019-Apr-17 05:55N 54°23' E 018°39'0 0.0
2019-Apr-17 05:30N 54°23' E 018°39'0 0.0
2019-Apr-17 05:00N 54°23' E 018°39'0 0.0
2019-Apr-17 04:30N 54°23' E 018°39'0 0.0
2019-Apr-17 04:00N 54°23' E 018°39'0 0.0
2019-Apr-17 03:21N 54°23' E 018°39'0 0.0
2019-Apr-17 02:59N 54°23' E 018°39'0 0.0
2019-Apr-17 02:29N 54°23' E 018°39'0 0.0
2019-Apr-17 01:56N 54°23' E 018°39'0 0.0
2019-Apr-17 01:26N 54°23' E 018°39'0 0.0
2019-Apr-17 00:59N 54°23' E 018°39'0 0.0
2019-Apr-17 00:28N 54°23' E 018°39'0 0.0
2019-Apr-16 23:55N 54°23' E 018°39'0 0.0
2019-Apr-16 23:28N 54°23' E 018°39'0 0.0
2019-Apr-16 22:55N 54°23' E 018°39'0 0.0
2019-Apr-16 22:27N 54°23' E 018°39'0 0.0
2019-Apr-16 22:00N 54°23' E 018°39'0 0.0
2019-Apr-16 21:15N 54°23' E 018°39'0 0.0
2019-Apr-16 20:57N 54°23' E 018°39'0 0.0
2019-Apr-16 20:30N 54°23' E 018°39'0 0.0
2019-Apr-16 19:50N 54°23' E 018°39'0 0.0
2019-Apr-16 19:23N 54°23' E 018°39'0 0.0
2019-Apr-16 18:59N 54°23' E 018°39'0 0.0
2019-Apr-16 18:29N 54°23' E 018°39'0 0.0
2019-Apr-16 17:58N 54°23' E 018°39'0 0.0
2019-Apr-16 17:19N 54°23' E 018°39'0 0.0
2019-Apr-16 16:55N 54°23' E 018°39'0 0.0
2019-Apr-16 16:28N 54°23' E 018°39'0 0.0
2019-Apr-16 15:55N 54°23' E 018°39'0 0.0
2019-Apr-16 15:27N 54°23' E 018°39'0 0.0
2019-Apr-16 15:00N 54°23' E 018°39'0 0.0
2019-Apr-16 14:30N 54°23' E 018°39'0 0.0
2019-Apr-16 14:00N 54°23' E 018°39'0 0.0
2019-Apr-16 13:30N 54°23' E 018°39'0 0.0
2019-Apr-16 12:59N 54°23' E 018°39'0 0.0
2019-Apr-16 12:26N 54°23' E 018°39'0 0.0
2019-Apr-16 11:59N 54°23' E 018°39'0 0.0
2019-Apr-16 11:26N 54°23' E 018°39'0 0.0
2019-Apr-16 10:58N 54°23' E 018°39'0 0.0
2019-Apr-16 10:28N 54°23' E 018°39'0 0.0
2019-Apr-16 09:55N 54°23' E 018°39'0 0.0
2019-Apr-16 09:28N 54°23' E 018°39'0 0.0
2019-Apr-16 08:58N 54°23' E 018°39'0 0.0
2019-Apr-16 08:30N 54°23' E 018°39'0 0.0
2019-Apr-16 08:00N 54°23' E 018°39'0 0.0
2019-Apr-16 07:30N 54°23' E 018°39'0 0.0
2019-Apr-16 07:00N 54°23' E 018°39'0 0.0
2019-Apr-16 06:30N 54°23' E 018°39'0 0.0
2019-Apr-16 05:59N 54°23' E 018°39'0 0.0
2019-Apr-16 05:29N 54°23' E 018°39'0 0.0
2019-Apr-16 04:53N 54°23' E 018°39'0 0.0
2019-Apr-16 04:26N 54°23' E 018°39'0 0.0
2019-Apr-16 03:58N 54°23' E 018°39'0 0.0
2019-Apr-16 03:28N 54°23' E 018°39'0 0.0
2019-Apr-16 02:58N 54°23' E 018°39'0 0.0
2019-Apr-16 02:28N 54°23' E 018°39'0 0.0
2019-Apr-16 01:58N 54°23' E 018°39'0 0.0
2019-Apr-16 01:30N 54°23' E 018°39'0 0.0
2019-Apr-16 01:00N 54°23' E 018°39'0 0.0
2019-Apr-16 00:30N 54°23' E 018°39'0 0.0
2019-Apr-16 00:00N 54°23' E 018°39'0 0.0
2019-Apr-15 23:29N 54°23' E 018°39'0 0.1
2019-Apr-15 22:56N 54°23' E 018°39'0 0.1
2019-Apr-15 22:05N 54°23' E 018°39'0 0.0
2019-Apr-15 21:32N 54°23' E 018°39'0 0.0
2019-Apr-15 21:13N 54°23' E 018°39'0 0.0
2019-Apr-15 20:55N 54°23' E 018°39'0 0.0
2019-Apr-15 19:49N 54°23' E 018°39'0 0.0
2019-Apr-15 19:25N 54°23' E 018°39'0 0.0
2019-Apr-15 19:01N 54°23' E 018°39'0 0.0
2019-Apr-15 18:30N 54°23' E 018°39'0 0.0
2019-Apr-15 18:00N 54°23' E 018°39'0 0.0
2019-Apr-15 17:30N 54°23' E 018°39'0 0.0
2019-Apr-15 17:00N 54°23' E 018°39'0 0.0
2019-Apr-15 16:29N 54°23' E 018°39'0 0.0
2019-Apr-15 15:59N 54°23' E 018°39'0 0.0
2019-Apr-15 15:23N 54°23' E 018°39'0 0.0
2019-Apr-15 14:59N 54°23' E 018°39'0 0.0
2019-Apr-15 14:26N 54°23' E 018°39'0 0.0
2019-Apr-15 13:55N 54°23' E 018°39'0 0.0
2019-Apr-15 13:25N 54°23' E 018°39'0 0.0
2019-Apr-15 12:58N 54°23' E 018°39'0 0.0
2019-Apr-15 12:13N 54°23' E 018°39'0 0.0
2019-Apr-15 12:01N 54°23' E 018°39'0 0.0
2019-Apr-15 11:27N 54°23' E 018°39'0 0.0
2019-Apr-15 11:00N 54°23' E 018°39'0 0.2
2019-Apr-15 10:18N 54°23' E 018°39'0 0.9
2019-Apr-15 10:00N 54°22' E 018°39'0 0.1
2019-Apr-15 09:29N 54°22' E 018°39'0 0.0
2019-Apr-15 08:59N 54°22' E 018°39'0 0.0
2019-Apr-15 08:29N 54°22' E 018°39'0 0.0
2019-Apr-15 07:59N 54°22' E 018°39'0 0.0
2019-Apr-15 07:29N 54°22' E 018°39'0 0.0
2019-Apr-15 06:58N 54°22' E 018°39'0 0.0
2019-Apr-15 06:28N 54°22' E 018°39'0 0.0
2019-Apr-15 05:58N 54°22' E 018°39'0 0.0
2019-Apr-15 05:19N 54°22' E 018°39'0 0.0
2019-Apr-15 05:00N 54°22' E 018°39'0 0.0
2019-Apr-15 04:27N 54°22' E 018°39'0 0.0
2019-Apr-15 04:00N 54°22' E 018°39'0 0.0
2019-Apr-15 03:30N 54°22' E 018°39'0 0.0
2019-Apr-15 03:00N 54°22' E 018°39'0 0.0
2019-Apr-15 02:29N 54°22' E 018°39'0 0.0
2019-Apr-15 01:59N 54°22' E 018°39'0 0.0
2019-Apr-15 01:29N 54°22' E 018°39'0 0.0
2019-Apr-15 00:59N 54°22' E 018°39'0 0.0
2019-Apr-15 00:29N 54°22' E 018°39'0 0.0
2019-Apr-14 23:55N 54°22' E 018°39'0 0.0
2019-Apr-14 23:28N 54°22' E 018°39'0 0.0
2019-Apr-14 22:58N 54°22' E 018°39'  
Track history (hours):
 
Tides and Currents Weather Stations Pressure Air Temp Water Temp Dewpoint Dewpoint Depression Visibility Wind Speed Wind Dir Waves Ship Positions

Norbank

Operator: P & O Ferries

Last reported at 2019-Apr-24 22:30 UTC. Time now 2019-Apr-24 22:40 UTC.
Position N 53°34' W 003°46'.

Length 167 m; draft 5.5 m.

Type: Ship (hazmat cat A). MMSI: 246213000.

Date/timePositionNaut miles runAvg speedWind from/ knotsBaromVisibWave heightAir tempDewpointWater temp
2019-Apr-24 22:30N 53°34' W 003°46'918.3
2019-Apr-24 22:00N 53°33' W 003°31'918.4
2019-Apr-24 21:31N 53°32' W 003°16'714.3
2019-Apr-24 21:01N 53°29' W 003°04'3 5.4
2019-Apr-24 20:31N 53°27' W 003°01'0 0.9
2019-Apr-24 20:01N 53°27' W 003°01'0 0.0
2019-Apr-24 19:28N 53°27' W 003°01'0 0.0
2019-Apr-24 18:55N 53°27' W 003°01'0 0.0
2019-Apr-24 18:28N 53°27' W 003°01'0 0.0
2019-Apr-24 17:58N 53°27' W 003°01'0 0.0
2019-Apr-24 17:30N 53°27' W 003°01'0 0.0
2019-Apr-24 17:00N 53°27' W 003°01'0 0.0
2019-Apr-24 16:30N 53°27' W 003°01'0 0.0
2019-Apr-24 16:00N 53°27' W 003°01'0 0.9
2019-Apr-24 15:30N 53°27' W 003°01'2 4.9
2019-Apr-24 15:00N 53°29' W 003°04'815.1
2019-Apr-24 14:30N 53°31' W 003°16'510.0
2019-Apr-24 14:00N 53°31' W 003°25'815.6
2019-Apr-24 13:31N 53°31' W 003°38'917.2
2019-Apr-24 13:01N 53°32' W 003°52'917.8
2019-Apr-24 12:30N 53°34' W 004°07'6617.6
2019-Apr-24 08:47N 53°22' W 005°55'517.1
2019-Apr-24 08:30N 53°20' W 006°03'611.4
2019-Apr-24 08:00N 53°21' W 006°12'1 1.0
2019-Apr-24 07:30N 53°21' W 006°13'0 0.0
2019-Apr-24 06:59N 53°21' W 006°13'0 0.0
2019-Apr-24 06:17N 53°21' W 006°13'0 0.0
2019-Apr-24 05:47N 53°21' W 006°13'0 0.0
2019-Apr-24 05:11N 53°21' W 006°13'0 0.0
2019-Apr-24 04:59N 53°21' W 006°13'0 0.0
2019-Apr-24 04:25N 53°21' W 006°13'0 0.2
2019-Apr-24 04:00N 53°21' W 006°13'5 9.0
2019-Apr-24 03:30N 53°20' W 006°05'816.9
2019-Apr-24 03:00N 53°23' W 005°52'7615.7
2019-Apr-23 22:10N 53°33' W 003°45'317.7
2019-Apr-23 22:00N 53°33' W 003°41'918.1
2019-Apr-23 21:30N 53°33' W 003°26'816.8
2019-Apr-23 21:00N 53°32' W 003°12'714.6
2019-Apr-23 20:30N 53°27' W 003°02'1 1.0
2019-Apr-23 20:00N 53°27' W 003°01'0 0.9
2019-Apr-23 19:30N 53°27' W 003°01'0 0.0
2019-Apr-23 18:59N 53°27' W 003°01'0 0.0
2019-Apr-23 18:29N 53°27' W 003°01'0 0.0
2019-Apr-23 17:59N 53°27' W 003°01'0 0.0
2019-Apr-23 17:29N 53°27' W 003°01'0 0.0
2019-Apr-23 16:58N 53°27' W 003°01'0 0.0
2019-Apr-23 16:28N 53°27' W 003°01'0 0.0
2019-Apr-23 15:58N 53°27' W 003°01'0 0.9
2019-Apr-23 15:30N 53°27' W 003°01'0 0.2
2019-Apr-23 15:00N 53°27' W 003°01'714.9
2019-Apr-23 14:30N 53°32' W 003°11'816.4
2019-Apr-23 14:00N 53°31' W 003°25'816.7
2019-Apr-23 13:30N 53°31' W 003°39'917.2
2019-Apr-23 13:00N 53°32' W 003°53'917.6
2019-Apr-23 12:30N 53°34' W 004°08'1618.5
2019-Apr-23 11:39N 53°36' W 004°35'3718.9
2019-Apr-23 09:41N 53°26' W 005°35'1319.5
2019-Apr-23 09:01N 53°22' W 005°56'018.9
2019-Apr-23 09:00N 53°22' W 005°56'816.1
2019-Apr-23 08:30N 53°21' W 006°09'2 2.7
2019-Apr-23 07:37N 53°21' W 006°13'0 0.0
2019-Apr-23 07:28N 53°21' W 006°13'0 0.0
2019-Apr-23 06:58N 53°21' W 006°13'0 0.0
2019-Apr-23 06:18N 53°21' W 006°13'0 0.0
2019-Apr-23 05:48N 53°21' W 006°13'0 0.0
2019-Apr-23 05:26N 53°21' W 006°13'0 0.0
2019-Apr-23 04:57N 53°21' W 006°13'0 0.0
2019-Apr-23 04:27N 53°21' W 006°13'0 0.2
2019-Apr-23 04:00N 53°21' W 006°13'4 8.8
2019-Apr-23 03:30N 53°20' W 006°06'917.5
2019-Apr-23 03:00N 53°23' W 005°52'917.5
2019-Apr-23 02:30N 53°26' W 005°38'917.3
2019-Apr-23 02:00N 53°28' W 005°23'917.3
2019-Apr-23 01:30N 53°30' W 005°09'4817.7
2019-Apr-22 22:47N 53°34' W 003°49'517.2
2019-Apr-22 22:30N 53°33' W 003°41'917.2
2019-Apr-22 22:00N 53°33' W 003°27'816.6
2019-Apr-22 21:30N 53°31' W 003°13'713.4
2019-Apr-22 21:00N 53°28' W 003°03'1 2.9
2019-Apr-22 20:30N 53°27' W 003°01'0 0.9
2019-Apr-22 20:00N 53°27' W 003°01'0 0.0
2019-Apr-22 19:27N 53°27' W 003°01'0 0.0
2019-Apr-22 19:00N 53°27' W 003°01'0 0.0
2019-Apr-22 18:29N 53°27' W 003°01'0 0.0
2019-Apr-22 17:59N 53°27' W 003°01'0 0.0
2019-Apr-22 17:29N 53°27' W 003°01'0 0.0
2019-Apr-22 16:59N 53°27' W 003°01'0 0.0
2019-Apr-22 16:28N 53°27' W 003°01'0 0.0
2019-Apr-22 15:58N 53°27' W 003°01'0 0.4
2019-Apr-22 15:30N 53°27' W 003°01'0 0.8
2019-Apr-22 15:00N 53°27' W 003°01'5 9.9
2019-Apr-22 14:30N 53°31' W 003°06'917.2
2019-Apr-22 14:00N 53°31' W 003°21'816.3
2019-Apr-22 13:30N 53°31' W 003°35'816.5
2019-Apr-22 13:00N 53°33' W 003°48'917.1
2019-Apr-22 12:30N 53°38' W 003°60'816.9
2019-Apr-22 12:00N 53°43' W 004°12'3015.9
2019-Apr-22 10:06N 54°00' W 004°54'112.6
2019-Apr-22 10:00N 54°01' W 004°55'611.4
2019-Apr-22 09:30N 54°06' W 004°59'511.0
2019-Apr-22 09:00N 54°11' W 005°03'611.3
2019-Apr-22 08:30N 54°17' W 005°06'611.0
2019-Apr-22 08:00N 54°22' W 005°10'611.1
2019-Apr-22 07:30N 54°26' W 005°15'611.4
2019-Apr-22 07:00N 54°32' W 005°18'611.0
2019-Apr-22 06:30N 54°37' W 005°21'510.7
2019-Apr-22 06:01N 54°42' W 005°25'612.7
2019-Apr-22 05:31N 54°48' W 005°30'714.4
2019-Apr-22 05:00N 54°54' W 005°35'714.7
2019-Apr-22 04:30N 55°01' W 005°41'714.1
2019-Apr-22 04:00N 55°06' W 005°48'713.2
2019-Apr-22 03:30N 55°12' W 005°55'612.5
2019-Apr-22 03:00N 55°17' W 006°01'613.0
2019-Apr-22 02:31N 55°21' W 006°09'713.9
2019-Apr-22 02:00N 55°24' W 006°20'713.7
2019-Apr-22 01:30N 55°29' W 006°29'815.5
2019-Apr-22 01:00N 55°34' W 006°40'815.7
2019-Apr-22 00:30N 55°40' W 006°49'816.3
2019-Apr-22 00:00N 55°46' W 006°57'816.4
2019-Apr-21 23:30N 55°53' W 007°05'16510.9
2019-Apr-21 08:22N 58°29' W 005°24'2910.1
2019-Apr-21 05:27N 58°42' W 004°34'510.2
2019-Apr-21 05:00N 58°42' W 004°25'510.8
2019-Apr-21 04:30N 58°42' W 004°14'611.4
2019-Apr-21 04:00N 58°43' W 004°03'611.6
2019-Apr-21 03:30N 58°43' W 003°52'612.1
2019-Apr-21 03:00N 58°43' W 003°40'613.0
2019-Apr-21 02:30N 58°43' W 003°28'917.9
2019-Apr-21 02:00N 58°43' W 003°11'1020.3
2019-Apr-21 01:30N 58°38' W 002°54'714.0
2019-Apr-21 01:00N 58°36' W 002°41'611.9
2019-Apr-21 00:30N 58°34' W 002°30'611.3
2019-Apr-21 00:00N 58°32' W 002°20'12811.2
2019-Apr-20 12:35N 58°07' E 001°39'411.2
2019-Apr-20 12:12N 58°07' E 001°47'211.0
2019-Apr-20 11:59N 58°06' E 001°52'4011.0
2019-Apr-20 08:19N 58°01' E 003°07'411.2
2019-Apr-20 07:55N 58°00' E 003°15'811.3
2019-Apr-20 07:11N 57°59' E 003°31'211.2
2019-Apr-20 07:01N 57°59' E 003°35'815.9
2019-Apr-20 06:30N 57°58' E 003°50'917.3
2019-Apr-20 06:00N 57°56' E 004°06'917.1
2019-Apr-20 05:30N 57°54' E 004°21'917.5
2019-Apr-20 04:59N 57°51' E 004°37'917.6
2019-Apr-20 04:30N 57°50' E 004°53'917.6
2019-Apr-20 04:00N 57°48' E 005°10'917.6
2019-Apr-20 03:30N 57°45' E 005°25'917.6
2019-Apr-20 03:00N 57°43' E 005°41'917.8
2019-Apr-20 02:30N 57°41' E 005°58'917.6
2019-Apr-20 02:00N 57°39' E 006°14'917.5
2019-Apr-20 01:30N 57°38' E 006°30'917.5
2019-Apr-20 01:00N 57°37' E 006°46'917.7
2019-Apr-20 00:30N 57°36' E 007°03'917.5
2019-Apr-20 00:00N 57°36' E 007°19'917.8
2019-Apr-19 23:30N 57°35' E 007°35'917.3
2019-Apr-19 23:00N 57°35' E 007°52'917.5
2019-Apr-19 22:30N 57°36' E 008°08'918.3
2019-Apr-19 22:00N 57°37' E 008°25'917.8
2019-Apr-19 21:30N 57°38' E 008°41'918.4
2019-Apr-19 21:00N 57°40' E 008°58'917.8
2019-Apr-19 20:30N 57°42' E 009°15'917.4
2019-Apr-19 20:00N 57°43' E 009°31'917.3
2019-Apr-19 19:30N 57°44' E 009°47'917.7
2019-Apr-19 19:01N 57°46' E 010°03'917.5
2019-Apr-19 18:30N 57°47' E 010°19'917.5
2019-Apr-19 18:00N 57°48' E 010°35'917.5
2019-Apr-19 17:31N 57°47' E 010°51'917.5
2019-Apr-19 17:01N 57°40' E 011°03'917.3
2019-Apr-19 16:31N 57°34' E 011°14'815.2
2019-Apr-19 16:01N 57°29' E 011°24'713.9
2019-Apr-19 15:30N 57°23' E 011°29'714.3
2019-Apr-19 15:00N 57°16' E 011°34'714.1
2019-Apr-19 14:30N 57°09' E 011°38'713.7
2019-Apr-19 14:00N 57°03' E 011°42'714.3
2019-Apr-19 13:30N 56°56' E 011°46'815.5
2019-Apr-19 13:00N 56°49' E 011°51'1213.8
2019-Apr-19 12:09N 56°37' E 011°57'210.1
2019-Apr-19 12:00N 56°36' E 011°58'810.9
2019-Apr-19 11:17N 56°28' E 012°01'414.0
2019-Apr-19 10:58N 56°24' E 012°02'2013.0
2019-Apr-19 09:24N 56°09' E 012°28'614.6
2019-Apr-19 09:00N 56°05' E 012°36'714.0
2019-Apr-19 08:31N 55°59' E 012°42'713.4
2019-Apr-19 08:00N 55°53' E 012°44'612.9
2019-Apr-19 07:31N 55°46' E 012°42'713.4
2019-Apr-19 07:00N 55°40' E 012°41'511.0
2019-Apr-19 06:30N 55°34' E 012°42'511.0
2019-Apr-19 06:00N 55°29' E 012°42'612.6
2019-Apr-19 05:30N 55°22' E 012°41'5 9.4
2019-Apr-19 05:00N 55°18' E 012°44'510.4
2019-Apr-19 04:30N 55°16' E 012°52'510.4
2019-Apr-19 04:00N 55°16' E 013°01'510.4
2019-Apr-19 03:30N 55°15' E 013°10'510.4
2019-Apr-19 03:00N 55°15' E 013°19'510.4
2019-Apr-19 02:30N 55°14' E 013°29'1310.8
2019-Apr-19 01:19N 55°13' E 013°51'411.1
2019-Apr-19 00:58N 55°13' E 013°58'510.9
2019-Apr-19 00:30N 55°12' E 014°06'510.4
2019-Apr-19 00:00N 55°09' E 014°14'510.3
2019-Apr-18 23:30N 55°06' E 014°21'510.3
2019-Apr-18 23:00N 55°03' E 014°28'510.4
2019-Apr-18 22:30N 54°59' E 014°35'510.3
2019-Apr-18 22:00N 54°57' E 014°42'510.3
2019-Apr-18 21:30N 54°54' E 014°50'510.5
2019-Apr-18 21:00N 54°52' E 014°58'510.5
2019-Apr-18 20:30N 54°51' E 015°08'510.7
2019-Apr-18 20:00N 54°51' E 015°17'510.5
2019-Apr-18 19:30N 54°51' E 015°26'510.4
2019-Apr-18 19:00N 54°50' E 015°35'510.5
2019-Apr-18 18:30N 54°50' E 015°44'510.4
2019-Apr-18 18:00N 54°50' E 015°53'510.5
2019-Apr-18 17:30N 54°50' E 016°02'510.5
2019-Apr-18 17:00N 54°49' E 016°11'510.6
2019-Apr-18 16:30N 54°49' E 016°21'510.6
2019-Apr-18 16:00N 54°49' E 016°30'610.5
2019-Apr-18 15:25N 54°50' E 016°40'510.5
2019-Apr-18 14:57N 54°51' E 016°49'1010.6
2019-Apr-18 13:59N 54°53' E 017°06'510.7
2019-Apr-18 13:30N 54°54' E 017°15'710.6
2019-Apr-18 12:49N 54°55' E 017°28'310.5
2019-Apr-18 12:29N 54°55' E 017°33'710.4
2019-Apr-18 11:51N 54°56' E 017°45'410.4
2019-Apr-18 11:29N 54°56' E 017°52'510.4
2019-Apr-18 11:00N 54°56' E 018°00'610.5
2019-Apr-18 10:29N 54°57' E 018°10'510.5
2019-Apr-18 10:00N 54°57' E 018°18'510.4
2019-Apr-18 09:30N 54°57' E 018°27'510.6
2019-Apr-18 09:00N 54°57' E 018°37'510.4
2019-Apr-18 08:30N 54°55' E 018°44'510.4
2019-Apr-18 08:00N 54°52' E 018°52'510.3
2019-Apr-18 07:30N 54°48' E 018°58'5 9.6
2019-Apr-18 07:00N 54°43' E 018°58'510.1
2019-Apr-18 06:30N 54°38' E 018°56'510.3
2019-Apr-18 06:00N 54°34' E 018°52'510.0
2019-Apr-18 05:30N 54°30' E 018°46'612.6
2019-Apr-18 05:01N 54°26' E 018°39'2 4.8
2019-Apr-18 04:31N 54°23' E 018°40'1 1.2
2019-Apr-18 03:58N 54°23' E 018°39'0 0.0
2019-Apr-18 03:28N 54°23' E 018°39'0 0.0
2019-Apr-18 02:58N 54°23' E 018°39'0 0.0
2019-Apr-18 02:25N 54°23' E 018°39'0 0.0
2019-Apr-18 02:00N 54°23' E 018°39'0 0.0
2019-Apr-18 01:30N 54°23' E 018°39'0 0.0
2019-Apr-18 00:54N 54°23' E 018°39'0 0.0
2019-Apr-18 00:21N 54°23' E 018°39'0 0.0
2019-Apr-17 23:59N 54°23' E 018°39'0 0.0
2019-Apr-17 23:29N 54°23' E 018°39'0 0.0
2019-Apr-17 22:59N 54°23' E 018°39'0 0.0
2019-Apr-17 22:29N 54°23' E 018°39'0 0.0
2019-Apr-17 21:59N 54°23' E 018°39'0 0.0
2019-Apr-17 21:25N 54°23' E 018°39'0 0.0
2019-Apr-17 20:55N 54°23' E 018°39'0 0.0
2019-Apr-17 20:28N 54°23' E 018°39'0 0.0
2019-Apr-17 19:58N 54°23' E 018°39'0 0.0
2019-Apr-17 19:31N 54°23' E 018°39'0 0.0
2019-Apr-17 19:00N 54°23' E 018°39'0 0.0
2019-Apr-17 18:30N 54°23' E 018°39'0 0.0
2019-Apr-17 17:54N 54°23' E 018°39'0 0.0
2019-Apr-17 17:30N 54°23' E 018°39'0 0.0
2019-Apr-17 16:59N 54°23' E 018°39'0 0.0
2019-Apr-17 16:20N 54°23' E 018°39'0 0.0
2019-Apr-17 15:59N 54°23' E 018°39'0 0.0
2019-Apr-17 15:11N 54°23' E 018°39'0 0.0
2019-Apr-17 14:46N 54°23' E 018°39'0 0.0
2019-Apr-17 14:28N 54°23' E 018°39'0 0.0
2019-Apr-17 13:52N 54°23' E 018°39'0 0.0
2019-Apr-17 13:28N 54°23' E 018°39'0 0.0
2019-Apr-17 12:58N 54°23' E 018°39'0 0.0
2019-Apr-17 12:30N 54°23' E 018°39'0 0.0
2019-Apr-17 12:00N 54°23' E 018°39'0 0.0
2019-Apr-17 11:21N 54°23' E 018°39'0 0.0
2019-Apr-17 11:00N 54°23' E 018°39'0 0.0
2019-Apr-17 10:27N 54°23' E 018°39'0 0.0
2019-Apr-17 09:59N 54°23' E 018°39'0 0.0
2019-Apr-17 09:29N 54°23' E 018°39'0 0.0
2019-Apr-17 08:59N 54°23' E 018°39'0 0.0
2019-Apr-17 08:29N 54°23' E 018°39'0 0.0
2019-Apr-17 07:59N 54°23' E 018°39'0 0.0
2019-Apr-17 07:25N 54°23' E 018°39'0 0.0
2019-Apr-17 06:58N 54°23' E 018°39'0 0.0
2019-Apr-17 06:28N 54°23' E 018°39'0 0.0
2019-Apr-17 05:55N 54°23' E 018°39'0 0.0
2019-Apr-17 05:30N 54°23' E 018°39'0 0.0
2019-Apr-17 05:00N 54°23' E 018°39'0 0.0
2019-Apr-17 04:30N 54°23' E 018°39'0 0.0
2019-Apr-17 04:00N 54°23' E 018°39'0 0.0
2019-Apr-17 03:21N 54°23' E 018°39'0 0.0
2019-Apr-17 02:59N 54°23' E 018°39'0 0.0
2019-Apr-17 02:29N 54°23' E 018°39'0 0.0
2019-Apr-17 01:56N 54°23' E 018°39'0 0.0
2019-Apr-17 01:26N 54°23' E 018°39'0 0.0
2019-Apr-17 00:59N 54°23' E 018°39'0 0.0
2019-Apr-17 00:28N 54°23' E 018°39'0 0.0
2019-Apr-16 23:55N 54°23' E 018°39'0 0.0
2019-Apr-16 23:28N 54°23' E 018°39'0 0.0
2019-Apr-16 22:55N 54°23' E 018°39'0 0.0
2019-Apr-16 22:27N 54°23' E 018°39'0 0.0
2019-Apr-16 22:00N 54°23' E 018°39'0 0.0
2019-Apr-16 21:15N 54°23' E 018°39'0 0.0
2019-Apr-16 20:57N 54°23' E 018°39'0 0.0
2019-Apr-16 20:30N 54°23' E 018°39'0 0.0
2019-Apr-16 19:50N 54°23' E 018°39'0 0.0
2019-Apr-16 19:23N 54°23' E 018°39'0 0.0
2019-Apr-16 18:59N 54°23' E 018°39'0 0.0
2019-Apr-16 18:29N 54°23' E 018°39'0 0.0
2019-Apr-16 17:58N 54°23' E 018°39'0 0.0
2019-Apr-16 17:19N 54°23' E 018°39'0 0.0
2019-Apr-16 16:55N 54°23' E 018°39'0 0.0
2019-Apr-16 16:28N 54°23' E 018°39'0 0.0
2019-Apr-16 15:55N 54°23' E 018°39'0 0.0
2019-Apr-16 15:27N 54°23' E 018°39'0 0.0
2019-Apr-16 15:00N 54°23' E 018°39'0 0.0
2019-Apr-16 14:30N 54°23' E 018°39'0 0.0
2019-Apr-16 14:00N 54°23' E 018°39'0 0.0
2019-Apr-16 13:30N 54°23' E 018°39'0 0.0
2019-Apr-16 12:59N 54°23' E 018°39'0 0.0
2019-Apr-16 12:26N 54°23' E 018°39'0 0.0
2019-Apr-16 11:59N 54°23' E 018°39'0 0.0
2019-Apr-16 11:26N 54°23' E 018°39'0 0.0
2019-Apr-16 10:58N 54°23' E 018°39'0 0.0
2019-Apr-16 10:28N 54°23' E 018°39'0 0.0
2019-Apr-16 09:55N 54°23' E 018°39'0 0.0
2019-Apr-16 09:28N 54°23' E 018°39'0 0.0
2019-Apr-16 08:58N 54°23' E 018°39'0 0.0
2019-Apr-16 08:30N 54°23' E 018°39'0 0.0
2019-Apr-16 08:00N 54°23' E 018°39'0 0.0
2019-Apr-16 07:30N 54°23' E 018°39'0 0.0
2019-Apr-16 07:00N 54°23' E 018°39'0 0.0
2019-Apr-16 06:30N 54°23' E 018°39'0 0.0
2019-Apr-16 05:59N 54°23' E 018°39'0 0.0
2019-Apr-16 05:29N 54°23' E 018°39'0 0.0
2019-Apr-16 04:53N 54°23' E 018°39'0 0.0
2019-Apr-16 04:26N 54°23' E 018°39'0 0.0
2019-Apr-16 03:58N 54°23' E 018°39'0 0.0
2019-Apr-16 03:28N 54°23' E 018°39'0 0.0
2019-Apr-16 02:58N 54°23' E 018°39'0 0.0
2019-Apr-16 02:28N 54°23' E 018°39'0 0.0
2019-Apr-16 01:58N 54°23' E 018°39'0 0.0
2019-Apr-16 01:30N 54°23' E 018°39'0 0.0
2019-Apr-16 01:00N 54°23' E 018°39'0 0.0
2019-Apr-16 00:30N 54°23' E 018°39'0 0.0
2019-Apr-16 00:00N 54°23' E 018°39'0 0.0
2019-Apr-15 23:29N 54°23' E 018°39'0 0.1
2019-Apr-15 22:56N 54°23' E 018°39'0 0.1
2019-Apr-15 22:05N 54°23' E 018°39'0 0.0
2019-Apr-15 21:32N 54°23' E 018°39'0 0.0
2019-Apr-15 21:13N 54°23' E 018°39'0 0.0
2019-Apr-15 20:55N 54°23' E 018°39'0 0.0
2019-Apr-15 19:49N 54°23' E 018°39'0 0.0
2019-Apr-15 19:25N 54°23' E 018°39'0 0.0
2019-Apr-15 19:01N 54°23' E 018°39'0 0.0
2019-Apr-15 18:30N 54°23' E 018°39'0 0.0
2019-Apr-15 18:00N 54°23' E 018°39'0 0.0
2019-Apr-15 17:30N 54°23' E 018°39'0 0.0
2019-Apr-15 17:00N 54°23' E 018°39'0 0.0
2019-Apr-15 16:29N 54°23' E 018°39'0 0.0
2019-Apr-15 15:59N 54°23' E 018°39'0 0.0
2019-Apr-15 15:23N 54°23' E 018°39'0 0.0
2019-Apr-15 14:59N 54°23' E 018°39'0 0.0
2019-Apr-15 14:26N 54°23' E 018°39'0 0.0
2019-Apr-15 13:55N 54°23' E 018°39'0 0.0
2019-Apr-15 13:25N 54°23' E 018°39'0 0.0
2019-Apr-15 12:58N 54°23' E 018°39'0 0.0
2019-Apr-15 12:13N 54°23' E 018°39'0 0.0
2019-Apr-15 12:01N 54°23' E 018°39'0 0.0
2019-Apr-15 11:27N 54°23' E 018°39'0 0.0
2019-Apr-15 11:00N 54°23' E 018°39'0 0.2
2019-Apr-15 10:18N 54°23' E 018°39'0 0.9
2019-Apr-15 10:00N 54°22' E 018°39'0 0.1
2019-Apr-15 09:29N 54°22' E 018°39'0 0.0
2019-Apr-15 08:59N 54°22' E 018°39'0 0.0
2019-Apr-15 08:29N 54°22' E 018°39'0 0.0
2019-Apr-15 07:59N 54°22' E 018°39'0 0.0
2019-Apr-15 07:29N 54°22' E 018°39'0 0.0
2019-Apr-15 06:58N 54°22' E 018°39'0 0.0
2019-Apr-15 06:28N 54°22' E 018°39'0 0.0
2019-Apr-15 05:58N 54°22' E 018°39'0 0.0
2019-Apr-15 05:19N 54°22' E 018°39'0 0.0
2019-Apr-15 05:00N 54°22' E 018°39'0 0.0
2019-Apr-15 04:27N 54°22' E 018°39'0 0.0
2019-Apr-15 04:00N 54°22' E 018°39'0 0.0
2019-Apr-15 03:30N 54°22' E 018°39'0 0.0
2019-Apr-15 03:00N 54°22' E 018°39'0 0.0
2019-Apr-15 02:29N 54°22' E 018°39'0 0.0
2019-Apr-15 01:59N 54°22' E 018°39'0 0.0
2019-Apr-15 01:29N 54°22' E 018°39'0 0.0
2019-Apr-15 00:59N 54°22' E 018°39'0 0.0
2019-Apr-15 00:29N 54°22' E 018°39'0 0.0
2019-Apr-14 23:55N 54°22' E 018°39'0 0.0
2019-Apr-14 23:28N 54°22' E 018°39'0 0.0
2019-Apr-14 22:58N 54°22' E 018°39'  

Dump ship's entire track history